sensor_id;sensor_type;location;lat;lon;timestamp;pressure;altitude;pressure_sealevel;temperature;humidity
4590;BME280;2307;48.448;9.216;2023-01-29T00:00:20;96362.91;;;-0.37;100.00
4590;BME280;2307;48.448;9.216;2023-01-29T00:02:46;96367.47;;;-0.49;100.00
4590;BME280;2307;48.448;9.216;2023-01-29T00:05:12;96361.88;;;-0.44;100.00
4590;BME280;2307;48.448;9.216;2023-01-29T00:07:39;96366.47;;;-0.38;100.00
4590;BME280;2307;48.448;9.216;2023-01-29T00:10:05;96354.22;;;-0.46;100.00
4590;BME280;2307;48.448;9.216;2023-01-29T00:12:32;96359.63;;;-0.39;100.00
4590;BME280;2307;48.448;9.216;2023-01-29T00:14:59;96375.91;;;-0.47;100.00
4590;BME280;2307;48.448;9.216;2023-01-29T00:17:27;96361.94;;;-0.64;100.00
4590;BME280;2307;48.448;9.216;2023-01-29T00:19:53;96366.84;;;-0.61;100.00
4590;BME280;2307;48.448;9.216;2023-01-29T00:22:20;96362.34;;;-0.68;100.00
4590;BME280;2307;48.448;9.216;2023-01-29T00:24:46;96362.00;;;-0.46;100.00
4590;BME280;2307;48.448;9.216;2023-01-29T00:27:12;96358.03;;;-0.50;100.00
4590;BME280;2307;48.448;9.216;2023-01-29T00:29:39;96356.50;;;-0.43;100.00
4590;BME280;2307;48.448;9.216;2023-01-29T00:32:05;96358.78;;;-0.30;100.00
4590;BME280;2307;48.448;9.216;2023-01-29T00:34:33;96359.88;;;-0.33;100.00
4590;BME280;2307;48.448;9.216;2023-01-29T00:37:00;96370.72;;;-0.47;100.00
4590;BME280;2307;48.448;9.216;2023-01-29T00:39:33;96372.75;;;-0.41;100.00
4590;BME280;2307;48.448;9.216;2023-01-29T00:42:03;96366.47;;;-0.38;100.00
4590;BME280;2307;48.448;9.216;2023-01-29T00:44:47;96361.38;;;-0.30;100.00
4590;BME280;2307;48.448;9.216;2023-01-29T00:47:22;96359.63;;;-0.39;100.00
4590;BME280;2307;48.448;9.216;2023-01-29T00:50:00;96357.03;;;-0.39;100.00
4590;BME280;2307;48.448;9.216;2023-01-29T00:52:26;96361.94;;;-0.36;100.00
4590;BME280;2307;48.448;9.216;2023-01-29T00:54:53;96358.47;;;-0.27;100.00
4590;BME280;2307;48.448;9.216;2023-01-29T00:57:20;96358.72;;;-0.21;100.00
4590;BME280;2307;48.448;9.216;2023-01-29T00:59:47;96355.06;;;-0.28;100.00
4590;BME280;2307;48.448;9.216;2023-01-29T01:02:13;96349.97;;;-0.20;100.00
4590;BME280;2307;48.448;9.216;2023-01-29T01:04:57;96353.63;;;-0.13;100.00
4590;BME280;2307;48.448;9.216;2023-01-29T01:07:25;96346.13;;;-0.16;100.00
4590;BME280;2307;48.448;9.216;2023-01-29T01:09:51;96350.16;;;-0.04;100.00
4590;BME280;2307;48.448;9.216;2023-01-29T01:12:35;96357.25;;;-0.06;100.00
4590;BME280;2307;48.448;9.216;2023-01-29T01:15:01;96348.22;;;-0.02;100.00
4590;BME280;2307;48.448;9.216;2023-01-29T01:17:28;96354.78;;;0.03;100.00
4590;BME280;2307;48.448;9.216;2023-01-29T01:19:54;96353.78;;;0.04;100.00
4590;BME280;2307;48.448;9.216;2023-01-29T01:22:21;96351.13;;;0.13;100.00
4590;BME280;2307;48.448;9.216;2023-01-29T01:24:48;96351.13;;;0.13;100.00
4590;BME280;2307;48.448;9.216;2023-01-29T01:27:15;96348.09;;;0.00;100.00
4590;BME280;2307;48.448;9.216;2023-01-29T01:29:43;96347.34;;;0.08;100.00
4590;BME280;2307;48.448;9.216;2023-01-29T01:32:10;96345.69;;;0.07;100.00
4590;BME280;2307;48.448;9.216;2023-01-29T01:34:36;96348.00;;;0.10;100.00
4590;BME280;2307;48.448;9.216;2023-01-29T01:37:03;96349.13;;;0.07;100.00
4590;BME280;2307;48.448;9.216;2023-01-29T01:39:29;96345.03;;;0.05;100.00
4590;BME280;2307;48.448;9.216;2023-01-29T01:41:57;96341.97;;;0.19;100.00
4590;BME280;2307;48.448;9.216;2023-01-29T01:47:08;96334.47;;;0.16;100.00
4590;BME280;2307;48.448;9.216;2023-01-29T01:49:34;96331.47;;;0.11;100.00
4590;BME280;2307;48.448;9.216;2023-01-29T01:52:01;96327.31;;;0.18;100.00
4590;BME280;2307;48.448;9.216;2023-01-29T01:54:28;96336.59;;;0.20;100.00
4590;BME280;2307;48.448;9.216;2023-01-29T01:56:58;96330.34;;;-0.05;100.00
4590;BME280;2307;48.448;9.216;2023-01-29T01:59:33;96322.97;;;-0.09;100.00
4590;BME280;2307;48.448;9.216;2023-01-29T02:02:00;96319.66;;;-0.02;100.00
4590;BME280;2307;48.448;9.216;2023-01-29T02:04:44;96327.16;;;0.02;100.00
4590;BME280;2307;48.448;9.216;2023-01-29T02:07:28;96329.34;;;0.06;100.00
4590;BME280;2307;48.448;9.216;2023-01-29T02:10:13;96334.75;;;0.13;100.00
4590;BME280;2307;48.448;9.216;2023-01-29T02:12:42;96336.59;;;0.03;100.00
4590;BME280;2307;48.448;9.216;2023-01-29T02:15:09;96326.41;;;-0.09;100.00
4590;BME280;2307;48.448;9.216;2023-01-29T02:17:36;96337.56;;;0.02;100.00
4590;BME280;2307;48.448;9.216;2023-01-29T02:20:04;96328.66;;;0.04;100.00
4590;BME280;2307;48.448;9.216;2023-01-29T02:22:49;96333.13;;;0.12;100.00
4590;BME280;2307;48.448;9.216;2023-01-29T02:25:26;96335.63;;;0.04;100.00
4590;BME280;2307;48.448;9.216;2023-01-29T02:28:08;96340.16;;;0.02;100.00
4590;BME280;2307;48.448;9.216;2023-01-29T02:30:39;96329.56;;;0.13;100.00
4590;BME280;2307;48.448;9.216;2023-01-29T02:33:07;96337.78;;;0.08;100.00
4590;BME280;2307;48.448;9.216;2023-01-29T02:35:38;96340.97;;;0.02;100.00
4590;BME280;2307;48.448;9.216;2023-01-29T02:38:09;96343.47;;;-0.06;100.00
4590;BME280;2307;48.448;9.216;2023-01-29T02:40:39;96343.03;;;-0.02;100.00
4590;BME280;2307;48.448;9.216;2023-01-29T02:43:12;96339.78;;;-0.04;100.00
4590;BME280;2307;48.448;9.216;2023-01-29T02:45:42;96336.44;;;0.04;100.00
4590;BME280;2307;48.448;9.216;2023-01-29T02:48:12;96342.09;;;0.17;100.00
4590;BME280;2307;48.448;9.216;2023-01-29T02:50:42;96347.00;;;0.20;100.00
4590;BME280;2307;48.448;9.216;2023-01-29T02:53:11;96350.78;;;0.26;100.00
4590;BME280;2307;48.448;9.216;2023-01-29T02:55:41;96358.50;;;0.18;100.00
4590;BME280;2307;48.448;9.216;2023-01-29T02:58:11;96353.97;;;0.20;100.00
4590;BME280;2307;48.448;9.216;2023-01-29T03:00:39;96350.41;;;0.21;100.00
4590;BME280;2307;48.448;9.216;2023-01-29T03:03:09;96353.00;;;0.21;100.00
4590;BME280;2307;48.448;9.216;2023-01-29T03:05:39;96358.50;;;0.18;100.00
4590;BME280;2307;48.448;9.216;2023-01-29T03:08:10;96355.59;;;0.21;100.00
4590;BME280;2307;48.448;9.216;2023-01-29T03:10:38;96363.97;;;0.15;100.00
4590;BME280;2307;48.448;9.216;2023-01-29T03:13:07;96358.78;;;0.15;100.00
4590;BME280;2307;48.448;9.216;2023-01-29T03:15:39;96360.88;;;0.11;100.00
4590;BME280;2307;48.448;9.216;2023-01-29T03:18:11;96355.44;;;0.22;100.00
4590;BME280;2307;48.448;9.216;2023-01-29T03:20:40;96352.63;;;0.16;100.00
4590;BME280;2307;48.448;9.216;2023-01-29T03:23:14;96347.63;;;0.05;100.00
4590;BME280;2307;48.448;9.216;2023-01-29T03:25:51;96347.22;;;0.09;100.00
4590;BME280;2307;48.448;9.216;2023-01-29T03:28:37;96344.84;;;0.16;100.00
4590;BME280;2307;48.448;9.216;2023-01-29T03:31:23;96344.03;;;-0.30;100.00
4590;BME280;2307;48.448;9.216;2023-01-29T03:34:10;96340.19;;;-0.26;100.00
4590;BME280;2307;48.448;9.216;2023-01-29T03:36:41;96342.84;;;-0.18;100.00
4590;BME280;2307;48.448;9.216;2023-01-29T03:39:10;96340.38;;;-0.10;100.00
4590;BME280;2307;48.448;9.216;2023-01-29T03:41:38;96333.19;;;0.02;100.00
4590;BME280;2307;48.448;9.216;2023-01-29T03:44:09;96334.28;;;-0.01;100.00
4590;BME280;2307;48.448;9.216;2023-01-29T03:46:40;96349.09;;;-0.11;100.00
4590;BME280;2307;48.448;9.216;2023-01-29T03:49:11;96343.34;;;-0.05;100.00
4590;BME280;2307;48.448;9.216;2023-01-29T03:51:45;96342.38;;;-0.04;100.00
4590;BME280;2307;48.448;9.216;2023-01-29T03:54:17;96340.38;;;0.08;100.00
4590;BME280;2307;48.448;9.216;2023-01-29T03:56:54;96347.75;;;0.13;100.00
4590;BME280;2307;48.448;9.216;2023-01-29T03:59:26;96344.38;;;0.03;100.00
4590;BME280;2307;48.448;9.216;2023-01-29T04:01:58;96348.22;;;-0.02;100.00
4590;BME280;2307;48.448;9.216;2023-01-29T04:04:26;96343.69;;;0.00;100.00
4590;BME280;2307;48.448;9.216;2023-01-29T04:06:56;96347.06;;;0.11;100.00
4590;BME280;2307;48.448;9.216;2023-01-29T04:09:26;96341.03;;;0.10;100.00
4590;BME280;2307;48.448;9.216;2023-01-29T04:11:56;96342.16;;;0.08;100.00
4590;BME280;2307;48.448;9.216;2023-01-29T04:14:24;96343.41;;;0.04;100.00
4590;BME280;2307;48.448;9.216;2023-01-29T04:16:52;96341.97;;;-0.09;100.00
4590;BME280;2307;48.448;9.216;2023-01-29T04:19:21;96349.41;;;-0.14;100.00
4590;BME280;2307;48.448;9.216;2023-01-29T04:21:48;96348.88;;;0.00;100.00
4590;BME280;2307;48.448;9.216;2023-01-29T04:24:15;96344.88;;;-0.12;100.00
4590;BME280;2307;48.448;9.216;2023-01-29T04:26:49;96352.28;;;-0.17;100.00
4590;BME280;2307;48.448;9.216;2023-01-29T04:29:22;96347.19;;;-0.09;100.00
4590;BME280;2307;48.448;9.216;2023-01-29T04:31:52;96347.47;;;-0.12;100.00
4590;BME280;2307;48.448;9.216;2023-01-29T04:34:22;96348.59;;;0.04;100.00
4590;BME280;2307;48.448;9.216;2023-01-29T04:36:55;96346.00;;;0.04;100.00
4590;BME280;2307;48.448;9.216;2023-01-29T04:39:24;96353.13;;;0.02;100.00
4590;BME280;2307;48.448;9.216;2023-01-29T04:41:54;96349.59;;;0.03;100.00
4590;BME280;2307;48.448;9.216;2023-01-29T04:44:27;96353.78;;;0.04;100.00
4590;BME280;2307;48.448;9.216;2023-01-29T04:46:59;96349.34;;;-0.04;100.00
4590;BME280;2307;48.448;9.216;2023-01-29T04:49:31;96353.41;;;-0.02;100.00
4590;BME280;2307;48.448;9.216;2023-01-29T04:52:00;96355.44;;;0.05;100.00
4590;BME280;2307;48.448;9.216;2023-01-29T04:54:33;96353.72;;;-0.05;100.00
4590;BME280;2307;48.448;9.216;2023-01-29T04:57:03;96350.81;;;-0.02;100.00
4590;BME280;2307;48.448;9.216;2023-01-29T04:59:32;96356.13;;;-0.21;100.00
4590;BME280;2307;48.448;9.216;2023-01-29T05:02:00;96359.09;;;-0.16;100.00
4590;BME280;2307;48.448;9.216;2023-01-29T05:04:30;96357.03;;;-0.12;100.00
4590;BME280;2307;48.448;9.216;2023-01-29T05:06:57;96356.38;;;-0.14;100.00
4590;BME280;2307;48.448;9.216;2023-01-29T05:09:26;96359.19;;;-0.08;100.00
4590;BME280;2307;48.448;9.216;2023-01-29T05:12:06;96356.59;;;-0.08;100.00
4590;BME280;2307;48.448;9.216;2023-01-29T05:14:34;96349.06;;;-0.01;100.00
4590;BME280;2307;48.448;9.216;2023-01-29T05:17:01;96338.50;;;0.00;100.00
4590;BME280;2307;48.448;9.216;2023-01-29T05:19:30;96348.38;;;-0.03;100.00
4590;BME280;2307;48.448;9.216;2023-01-29T05:21:56;96341.78;;;0.03;100.00
4590;BME280;2307;48.448;9.216;2023-01-29T05:24:24;96338.91;;;0.06;100.00
4590;BME280;2307;48.448;9.216;2023-01-29T05:26:51;96344.38;;;0.03;100.00
4590;BME280;2307;48.448;9.216;2023-01-29T05:29:36;96357.06;;;0.06;100.00
4590;BME280;2307;48.448;9.216;2023-01-29T05:32:02;96350.09;;;0.06;100.00
4590;BME280;2307;48.448;9.216;2023-01-29T05:34:30;96349.47;;;-0.06;100.00
4590;BME280;2307;48.448;9.216;2023-01-29T05:36:56;96349.41;;;-0.14;100.00
4590;BME280;2307;48.448;9.216;2023-01-29T05:39:23;96339.03;;;-0.14;100.00
4590;BME280;2307;48.448;9.216;2023-01-29T05:41:49;96342.19;;;-0.20;100.00
4590;BME280;2307;48.448;9.216;2023-01-29T05:44:15;96346.09;;;-0.33;100.00
4590;BME280;2307;48.448;9.216;2023-01-29T05:46:42;96349.88;;;-0.28;100.00
4590;BME280;2307;48.448;9.216;2023-01-29T05:49:09;96351.84;;;-0.39;100.00
4590;BME280;2307;48.448;9.216;2023-01-29T05:51:37;96352.69;;;-0.39;100.00
4590;BME280;2307;48.448;9.216;2023-01-29T05:54:03;96357.72;;;-0.37;100.00
4590;BME280;2307;48.448;9.216;2023-01-29T05:56:30;96354.69;;;-0.33;100.00
4590;BME280;2307;48.448;9.216;2023-01-29T05:58:56;96361.31;;;-0.21;100.00
4590;BME280;2307;48.448;9.216;2023-01-29T06:01:23;96364.22;;;-0.24;100.00
4590;BME280;2307;48.448;9.216;2023-01-29T06:03:50;96354.47;;;-0.22;100.00
4590;BME280;2307;48.448;9.216;2023-01-29T06:06:17;96352.28;;;-0.17;100.00
4590;BME280;2307;48.448;9.216;2023-01-29T06:08:44;96346.94;;;-0.15;100.00
4590;BME280;2307;48.448;9.216;2023-01-29T06:11:11;96352.13;;;-0.15;100.00
4590;BME280;2307;48.448;9.216;2023-01-29T06:13:38;96349.69;;;-0.17;100.00
4590;BME280;2307;48.448;9.216;2023-01-29T06:16:04;96335.44;;;-0.13;100.00
4590;BME280;2307;48.448;9.216;2023-01-29T06:18:31;96319.84;;;-0.13;100.00
4590;BME280;2307;48.448;9.216;2023-01-29T06:20:59;96308.28;;;-0.36;100.00
4590;BME280;2307;48.448;9.216;2023-01-29T06:23:25;96310.56;;;-0.33;100.00
4590;BME280;2307;48.448;9.216;2023-01-29T06:25:53;96308.22;;;-0.26;100.00
4590;BME280;2307;48.448;9.216;2023-01-29T06:28:24;96307.41;;;-0.27;100.00
4590;BME280;2307;48.448;9.216;2023-01-29T06:30:50;96315.19;;;-0.27;100.00
4590;BME280;2307;48.448;9.216;2023-01-29T06:33:16;96326.09;;;-0.23;100.00
4590;BME280;2307;48.448;9.216;2023-01-29T06:35:43;96331.94;;;-0.21;100.00
4590;BME280;2307;48.448;9.216;2023-01-29T06:38:09;96336.03;;;-0.19;100.00
4590;BME280;2307;48.448;9.216;2023-01-29T06:40:37;96339.69;;;-0.39;100.00
4590;BME280;2307;48.448;9.216;2023-01-29T06:43:04;96343.50;;;-0.33;100.00
4590;BME280;2307;48.448;9.216;2023-01-29T06:45:31;96339.78;;;-0.31;100.00
4590;BME280;2307;48.448;9.216;2023-01-29T06:47:57;96339.66;;;-0.29;100.00
4590;BME280;2307;48.448;9.216;2023-01-29T06:50:23;96338.31;;;-0.33;100.00
4590;BME280;2307;48.448;9.216;2023-01-29T06:52:50;96343.72;;;-0.27;100.00
4590;BME280;2307;48.448;9.216;2023-01-29T06:55:16;96344.06;;;-0.39;100.00
4590;BME280;2307;48.448;9.216;2023-01-29T06:57:43;96356.09;;;-0.38;100.00
4590;BME280;2307;48.448;9.216;2023-01-29T07:00:11;96337.91;;;-0.66;100.00
4590;BME280;2307;48.448;9.216;2023-01-29T07:02:38;96338.94;;;-0.49;100.00
4590;BME280;2307;48.448;9.216;2023-01-29T07:05:04;96340.75;;;-0.59;100.00
4590;BME280;2307;48.448;9.216;2023-01-29T07:07:31;96347.56;;;-0.58;100.00
4590;BME280;2307;48.448;9.216;2023-01-29T07:10:00;96363.81;;;-0.56;100.00
4590;BME280;2307;48.448;9.216;2023-01-29T07:12:26;96374.31;;;-0.48;100.00
4590;BME280;2307;48.448;9.216;2023-01-29T07:14:52;96359.75;;;-0.68;100.00
4590;BME280;2307;48.448;9.216;2023-01-29T07:17:20;96353.78;;;-0.78;100.00
4590;BME280;2307;48.448;9.216;2023-01-29T07:19:46;96354.66;;;-0.60;100.00
4590;BME280;2307;48.448;9.216;2023-01-29T07:22:13;96359.56;;;-0.57;100.00
4590;BME280;2307;48.448;9.216;2023-01-29T07:24:40;96360.19;;;-0.36;100.00
4590;BME280;2307;48.448;9.216;2023-01-29T07:27:06;96370.50;;;-0.26;100.00
4590;BME280;2307;48.448;9.216;2023-01-29T07:29:33;96372.66;;;-0.22;100.00
4590;BME280;2307;48.448;9.216;2023-01-29T07:31:59;96377.59;;;-0.28;100.00
4590;BME280;2307;48.448;9.216;2023-01-29T07:34:27;96376.84;;;-0.38;100.00
4590;BME280;2307;48.448;9.216;2023-01-29T07:36:53;96370.34;;;-0.25;100.00
4590;BME280;2307;48.448;9.216;2023-01-29T07:39:20;96368.81;;;-0.18;100.00
4590;BME280;2307;48.448;9.216;2023-01-29T07:41:47;96371.69;;;-0.21;100.00
4590;BME280;2307;48.448;9.216;2023-01-29T07:44:13;96374.31;;;-0.21;100.00
4590;BME280;2307;48.448;9.216;2023-01-29T07:46:40;96382.53;;;-0.35;100.00
4590;BME280;2307;48.448;9.216;2023-01-29T07:49:06;96374.88;;;-0.27;100.00
4590;BME280;2307;48.448;9.216;2023-01-29T07:51:34;96378.97;;;-0.24;100.00
4590;BME280;2307;48.448;9.216;2023-01-29T07:54:00;96380.03;;;-0.17;100.00
4590;BME280;2307;48.448;9.216;2023-01-29T07:56:27;96387.91;;;-0.09;100.00
4590;BME280;2307;48.448;9.216;2023-01-29T07:58:53;96386.81;;;-0.07;100.00
4590;BME280;2307;48.448;9.216;2023-01-29T08:01:19;96387.84;;;0.00;100.00
4590;BME280;2307;48.448;9.216;2023-01-29T08:03:46;96397.31;;;-0.08;100.00
4590;BME280;2307;48.448;9.216;2023-01-29T08:06:12;96393.31;;;-0.03;100.00
4590;BME280;2307;48.448;9.216;2023-01-29T08:08:40;96396.38;;;-0.07;100.00
4590;BME280;2307;48.448;9.216;2023-01-29T08:11:06;96402.06;;;-0.31;100.00
4590;BME280;2307;48.448;9.216;2023-01-29T08:13:33;96407.09;;;-0.20;100.00
4590;BME280;2307;48.448;9.216;2023-01-29T08:15:59;96412.56;;;-0.23;100.00
4590;BME280;2307;48.448;9.216;2023-01-29T08:18:26;96409.13;;;-0.14;100.00
4590;BME280;2307;48.448;9.216;2023-01-29T08:20:57;96411.41;;;-0.11;100.00
4590;BME280;2307;48.448;9.216;2023-01-29T08:23:24;96414.19;;;-0.22;100.00
4590;BME280;2307;48.448;9.216;2023-01-29T08:25:51;96416.91;;;-0.14;100.00
4590;BME280;2307;48.448;9.216;2023-01-29T08:28:18;96409.00;;;-0.22;100.00
4590;BME280;2307;48.448;9.216;2023-01-29T08:30:44;96415.84;;;-0.21;100.00
4590;BME280;2307;48.448;9.216;2023-01-29T08:33:11;96406.41;;;-0.22;100.00
4590;BME280;2307;48.448;9.216;2023-01-29T08:35:37;96399.63;;;-0.05;100.00
4590;BME280;2307;48.448;9.216;2023-01-29T08:38:05;96397.91;;;-0.14;100.00
4590;BME280;2307;48.448;9.216;2023-01-29T08:40:32;96388.63;;;-0.17;100.00
4590;BME280;2307;48.448;9.216;2023-01-29T08:43:01;96392.09;;;0.02;100.00
4590;BME280;2307;48.448;9.216;2023-01-29T08:45:27;96395.56;;;-0.08;100.00
4590;BME280;2307;48.448;9.216;2023-01-29T08:47:54;96401.22;;;0.06;100.00
4590;BME280;2307;48.448;9.216;2023-01-29T08:50:20;96406.91;;;0.19;100.00
4590;BME280;2307;48.448;9.216;2023-01-29T08:52:47;96409.94;;;0.32;100.00
4590;BME280;2307;48.448;9.216;2023-01-29T08:55:13;96416.63;;;0.34;100.00
4590;BME280;2307;48.448;9.216;2023-01-29T08:57:40;96409.88;;;0.41;100.00
4590;BME280;2307;48.448;9.216;2023-01-29T09:00:08;96408.31;;;0.48;100.00
4590;BME280;2307;48.448;9.216;2023-01-29T09:02:35;96417.00;;;0.39;100.00
4590;BME280;2307;48.448;9.216;2023-01-29T09:05:01;96410.91;;;0.31;100.00
4590;BME280;2307;48.448;9.216;2023-01-29T09:07:28;96409.72;;;0.25;100.00
4590;BME280;2307;48.448;9.216;2023-01-29T09:09:54;96410.91;;;0.04;100.00
4590;BME280;2307;48.448;9.216;2023-01-29T09:12:21;96420.25;;;0.24;100.00
4590;BME280;2307;48.448;9.216;2023-01-29T09:14:47;96419.97;;;0.27;100.00
4590;BME280;2307;48.448;9.216;2023-01-29T09:17:15;96424.38;;;0.17;100.00
4590;BME280;2307;48.448;9.216;2023-01-29T09:19:42;96434.88;;;0.25;100.00
4590;BME280;2307;48.448;9.216;2023-01-29T09:22:08;96430.44;;;0.08;100.00
4590;BME280;2307;48.448;9.216;2023-01-29T09:24:34;96435.94;;;0.05;100.00
4590;BME280;2307;48.448;9.216;2023-01-29T09:27:01;96440.25;;;0.14;100.00
4590;BME280;2307;48.448;9.216;2023-01-29T09:29:27;96437.91;;;0.20;100.00
4590;BME280;2307;48.448;9.216;2023-01-29T09:31:54;96442.97;;;0.22;100.00
4590;BME280;2307;48.448;9.216;2023-01-29T09:34:22;96436.78;;;0.23;100.00
4590;BME280;2307;48.448;9.216;2023-01-29T09:36:48;96441.81;;;0.34;100.00
4590;BME280;2307;48.448;9.216;2023-01-29T09:39:14;96449.19;;;0.29;100.00
4590;BME280;2307;48.448;9.216;2023-01-29T09:41:43;96447.59;;;0.28;100.00
4590;BME280;2307;48.448;9.216;2023-01-29T09:44:16;96444.09;;;0.10;100.00
4590;BME280;2307;48.448;9.216;2023-01-29T09:46:45;96429.91;;;0.31;100.00
4590;BME280;2307;48.448;9.216;2023-01-29T09:49:13;96439.34;;;0.32;100.00
4590;BME280;2307;48.448;9.216;2023-01-29T09:51:43;96431.88;;;0.47;100.00
4590;BME280;2307;48.448;9.216;2023-01-29T09:54:13;96442.19;;;0.57;100.00
4590;BME280;2307;48.448;9.216;2023-01-29T09:56:41;96444.69;;;0.48;100.00
4590;BME280;2307;48.448;9.216;2023-01-29T09:59:10;96439.72;;;0.55;100.00
4590;BME280;2307;48.448;9.216;2023-01-29T10:01:39;96429.56;;;0.62;100.00
4590;BME280;2307;48.448;9.216;2023-01-29T10:04:19;96431.34;;;0.61;100.00
4590;BME280;2307;48.448;9.216;2023-01-29T10:06:55;96433.19;;;0.51;100.00
4590;BME280;2307;48.448;9.216;2023-01-29T10:12:09;96427.56;;;0.38;100.00
4590;BME280;2307;48.448;9.216;2023-01-29T10:14:41;96413.59;;;0.57;100.00
4590;BME280;2307;48.448;9.216;2023-01-29T10:17:15;96409.50;;;0.54;100.00
4590;BME280;2307;48.448;9.216;2023-01-29T10:19:53;96409.66;;;0.52;100.00
4590;BME280;2307;48.448;9.216;2023-01-29T10:22:37;96402.81;;;0.51;100.00
4590;BME280;2307;48.448;9.216;2023-01-29T10:25:09;96396.88;;;0.41;100.00
4590;BME280;2307;48.448;9.216;2023-01-29T10:27:38;96387.59;;;0.39;100.00
4590;BME280;2307;48.448;9.216;2023-01-29T10:30:06;96373.03;;;0.11;100.00
4590;BME280;2307;48.448;9.216;2023-01-29T10:32:34;96372.03;;;-0.06;100.00
4590;BME280;2307;48.448;9.216;2023-01-29T10:35:03;96368.13;;;0.08;100.00
4590;BME280;2307;48.448;9.216;2023-01-29T10:37:33;96369.94;;;0.25;100.00
4590;BME280;2307;48.448;9.216;2023-01-29T10:40:05;96376.03;;;0.16;100.00
4590;BME280;2307;48.448;9.216;2023-01-29T10:42:41;96363.81;;;-0.02;100.00
4590;BME280;2307;48.448;9.216;2023-01-29T10:45:14;96353.00;;;0.03;100.00
4590;BME280;2307;48.448;9.216;2023-01-29T10:47:54;96361.31;;;0.42;100.00
4590;BME280;2307;48.448;9.216;2023-01-29T10:50:33;96367.94;;;0.36;100.00
4590;BME280;2307;48.448;9.216;2023-01-29T10:53:14;96377.66;;;0.70;100.00
4590;BME280;2307;48.448;9.216;2023-01-29T10:55:48;96383.69;;;1.14;100.00
4590;BME280;2307;48.448;9.216;2023-01-29T10:58:19;96383.38;;;1.17;100.00
4590;BME280;2307;48.448;9.216;2023-01-29T11:00:47;96392.28;;;1.40;100.00
4590;BME280;2307;48.448;9.216;2023-01-29T11:03:15;96383.41;;;1.50;100.00
4590;BME280;2307;48.448;9.216;2023-01-29T11:05:43;96379.06;;;1.59;100.00
4590;BME280;2307;48.448;9.216;2023-01-29T11:08:11;96380.38;;;1.63;100.00
4590;BME280;2307;48.448;9.216;2023-01-29T11:10:39;96380.63;;;1.44;100.00
4590;BME280;2307;48.448;9.216;2023-01-29T11:13:08;96368.22;;;1.38;100.00
4590;BME280;2307;48.448;9.216;2023-01-29T11:15:38;96371.56;;;1.56;100.00
4590;BME280;2307;48.448;9.216;2023-01-29T11:18:05;96366.22;;;1.57;100.00
4590;BME280;2307;48.448;9.216;2023-01-29T11:20:34;96359.75;;;1.36;100.00
4590;BME280;2307;48.448;9.216;2023-01-29T11:23:01;96359.03;;;1.26;100.00
4590;BME280;2307;48.448;9.216;2023-01-29T11:25:27;96353.13;;;1.41;100.00
4590;BME280;2307;48.448;9.216;2023-01-29T11:27:57;96359.44;;;1.39;100.00
4590;BME280;2307;48.448;9.216;2023-01-29T11:30:26;96363.72;;;1.22;100.00
4590;BME280;2307;48.448;9.216;2023-01-29T11:32:56;96353.47;;;1.21;100.00
4590;BME280;2307;48.448;9.216;2023-01-29T11:35:24;96347.06;;;1.33;100.00
4590;BME280;2307;48.448;9.216;2023-01-29T11:37:50;96358.22;;;1.51;100.00
4590;BME280;2307;48.448;9.216;2023-01-29T11:40:34;96354.59;;;1.44;100.00
4590;BME280;2307;48.448;9.216;2023-01-29T11:43:10;96357.00;;;1.71;100.00
4590;BME280;2307;48.448;9.216;2023-01-29T11:45:38;96360.88;;;1.67;100.00
4590;BME280;2307;48.448;9.216;2023-01-29T11:48:10;96352.88;;;1.27;100.00
4590;BME280;2307;48.448;9.216;2023-01-29T11:50:38;96347.50;;;1.28;100.00
4590;BME280;2307;48.448;9.216;2023-01-29T11:53:05;96357.44;;;1.58;100.00
4590;BME280;2307;48.448;9.216;2023-01-29T11:55:32;96348.00;;;1.57;100.00
4590;BME280;2307;48.448;9.216;2023-01-29T11:58:02;96356.63;;;1.58;100.00
4590;BME280;2307;48.448;9.216;2023-01-29T12:00:30;96346.63;;;1.79;100.00
4590;BME280;2307;48.448;9.216;2023-01-29T12:03:00;96352.16;;;1.84;100.00
4590;BME280;2307;48.448;9.216;2023-01-29T12:05:31;96352.66;;;1.88;100.00
4590;BME280;2307;48.448;9.216;2023-01-29T12:07:58;96343.69;;;1.82;100.00
4590;BME280;2307;48.448;9.216;2023-01-29T12:10:29;96336.44;;;1.60;100.00
4590;BME280;2307;48.448;9.216;2023-01-29T12:13:02;96332.81;;;1.45;100.00
4590;BME280;2307;48.448;9.216;2023-01-29T12:15:29;96318.13;;;1.36;100.00
4590;BME280;2307;48.448;9.216;2023-01-29T12:17:57;96316.38;;;1.52;100.00
4590;BME280;2307;48.448;9.216;2023-01-29T12:20:28;96309.75;;;1.58;100.00
4590;BME280;2307;48.448;9.216;2023-01-29T12:22:58;96315.13;;;1.23;100.00
4590;BME280;2307;48.448;9.216;2023-01-29T12:25:29;96317.22;;;1.53;100.00
4590;BME280;2307;48.448;9.216;2023-01-29T12:28:03;96322.59;;;1.59;100.00
4590;BME280;2307;48.448;9.216;2023-01-29T12:30:34;96328.56;;;1.44;100.00
4590;BME280;2307;48.448;9.216;2023-01-29T12:33:04;96318.75;;;1.30;100.00
4590;BME280;2307;48.448;9.216;2023-01-29T12:35:37;96313.91;;;1.43;100.00
4590;BME280;2307;48.448;9.216;2023-01-29T12:38:08;96299.28;;;1.42;100.00
4590;BME280;2307;48.448;9.216;2023-01-29T12:40:39;96296.06;;;1.56;100.00
4590;BME280;2307;48.448;9.216;2023-01-29T12:43:11;96284.97;;;1.46;100.00
4590;BME280;2307;48.448;9.216;2023-01-29T12:45:39;96279.50;;;1.65;100.00
4590;BME280;2307;48.448;9.216;2023-01-29T12:48:07;96266.16;;;1.60;100.00
4590;BME280;2307;48.448;9.216;2023-01-29T12:50:34;96251.81;;;1.48;100.00
4590;BME280;2307;48.448;9.216;2023-01-29T12:53:04;96250.84;;;1.57;100.00
4590;BME280;2307;48.448;9.216;2023-01-29T12:55:33;96244.03;;;1.64;100.00
4590;BME280;2307;48.448;9.216;2023-01-29T12:58:02;96239.16;;;1.69;100.00
4590;BME280;2307;48.448;9.216;2023-01-29T13:00:31;96235.88;;;1.51;100.00
4590;BME280;2307;48.448;9.216;2023-01-29T13:02:59;96229.03;;;1.50;100.00
4590;BME280;2307;48.448;9.216;2023-01-29T13:05:27;96228.66;;;1.37;100.00
4590;BME280;2307;48.448;9.216;2023-01-29T13:07:56;96221.84;;;1.36;100.00
4590;BME280;2307;48.448;9.216;2023-01-29T13:10:25;96216.31;;;1.39;100.00
4590;BME280;2307;48.448;9.216;2023-01-29T13:12:54;96201.00;;;1.36;100.00
4590;BME280;2307;48.448;9.216;2023-01-29T13:15:23;96203.25;;;1.23;100.00
4590;BME280;2307;48.448;9.216;2023-01-29T13:17:54;96200.00;;;1.29;100.00
4590;BME280;2307;48.448;9.216;2023-01-29T13:20:24;96193.09;;;1.12;100.00
4590;BME280;2307;48.448;9.216;2023-01-29T13:22:51;96202.75;;;1.19;100.00
4590;BME280;2307;48.448;9.216;2023-01-29T13:25:20;96186.22;;;1.36;100.00
4590;BME280;2307;48.448;9.216;2023-01-29T13:27:48;96190.88;;;1.25;100.00
4590;BME280;2307;48.448;9.216;2023-01-29T13:30:24;96192.19;;;1.29;100.00
4590;BME280;2307;48.448;9.216;2023-01-29T13:32:51;96186.69;;;1.40;100.00